Terminal Aerodrome Forecast
Issued by NWS

Home | Current Version | Previous Version | Text Only | Print | Product List | Glossary On
Versions: 1 2 3 4 5 6 7 8 9 10 11 12
753
FTUS43 KICT 300521
TAFCNU
TAF
KCNU 300521Z 3006/0106 29006KT P6SM FEW250
     FM301000 29008KT P6SM BKN090
     FM301600 28015G22KT P6SM SCT200
     FM010000 31007KT P6SM FEW250=

USA.gov is the U.S. government's official web portal to all federal, state and local government web resources and services.